Pompeys Pillar, MT (59064)

3:38 PM MDT on August 04, 2015 (GMT -0600)
MesoWest | | Change Station
CLOSE
Current Station
Personal Weather Station
Location: Huntley, MT
Elevation: 3000 ft
Nearby Weather Stations

Elev 3000 ft 45.92 °N, 108.25 °W | Updated 23 minutes ago

Overcast
Overcast
72 °F
Feels Like 76 °F
N
7
Wind Variable Wind from WNW
Gusts 0.0 mph

Today
High -- | Low -- °F
--% Chance of Precip.
Yesterday
High -- | Low -- °F
Precip. -- in
5:57 AM 8:37 PM
Waning Gibbous, 74% visible
Pressure 29.92 in
Visibility 10.0 miles
Clouds Few 6000 ft
Scattered Clouds 8000 ft
Mostly Cloudy 10000 ft
Heat Index 76 °F
Dew Point 59 °F
Humidity 63%
Rainfall in
Snow Depth Not available.
UV 5 out of 12
Pollen 5.60 out of 12
Air Quality Not available.
Flu Activity Not available.
METAR KBIL 042053Z 31015KT 10SM -RA FEW060CB SCT080 BKN100 23/14 A3002 RMK AO2 RAE22B48 SLP130 CB NW-SE MOV N P0000 60000 T02280139 50006

More Conditions Fewer Conditions

Pressure 29.92 in
Visibility 10.0 miles
Clouds Few 6000 ft
Scattered Clouds 8000 ft
Mostly Cloudy 10000 ft
Heat Index 76 °F
Dew Point 59 °F
Humidity 63%
Rainfall in
Snow Depth Not available.
UV 5 out of 12
Pollen 5.60 out of 12
Air Quality Not available.
Flu Activity Not available.
METAR KBIL 042053Z 31015KT 10SM -RA FEW060CB SCT080 BKN100 23/14 A3002 RMK AO2 RAE22B48 SLP130 CB NW-SE MOV N P0000 60000 T02280139 50006

More Conditions Fewer Conditions

10-Day Weather Forecast

×

Almanac

Astronomy

Aug. 04, 2015 Rise Set
Actual Time
Civil Twilight
Nautical Twilight
Astronomical Twilight
Moon
Length of Visible Light
Length of Day
Tomorrow will be .
, % of the Moon is Illuminated

Today's Extremes

State Highs State Lows

Community

WunderPhotos

Upload Photos

1,843,990 photos uploaded!

WunderBlogs® & News

Nearby

Air Quality

  Air Quality AQ Index Pollutant
Not available.

Snow Depth

Station Depth Elevation

Earthquake Activity

City Distance Mag. Time & Date
Minimum magnitude displayed is 2.5.

Coastal Water Temperatures

Place Temperature

Stations

Nearby Weather Stations

Station Location Temp. Windchill Dew Point Humidity Wind Precip. Elev Updated Type